CheckWX is a tool to help pilots better visualize weather data.  It is not intended as a substitute for an official pre-flight weather briefing.

05:53:42 UTC

KLOZ METAR
London-Corbin Arpt-Magee Field Airport
London, Kentucky, USA
Current

1 hour ago

KLOZ 190453Z AUTO 27011G19KT 10SM BKN047 06/00 A3005 RMK AO2 PK WND 27026/0410 SLP178 T00560000 401000039
Observed
Jan-19 @ 04:53 UTC
Wind
  • 270° at 11 KTS
  • Gusting to 19 KTS
Visibility
10 SM
Flight Rules
VFR
Cloud Levels
  • Broken at 4,700' AGL
Temperature
C / 43°F
Dewpoint
C / 32°F
Humidity
66%
Altimeter
30.05" Hg
Pressure
1017.62 hPa
Previous

2 hours ago

KLOZ 190401Z AUTO 29017G25KT 10SM SCT019 OVC032 07/02 A3004 RMK AO2 T00670017
Observed
Jan-19 @ 04:01 UTC
Wind
  • 290° at 17 KTS
  • Gusting to 25 KTS
Visibility
10 SM
Flight Rules
VFR
Cloud Levels
  • Scattered at 1,900' AGL
  • Overcast at 3,200' AGL
Temperature
C / 45°F
Dewpoint
C / 36°F
Humidity
71%
Altimeter
30.04" Hg
Pressure
1017.32 hPa
Previous

2 hours ago

KLOZ 190353Z AUTO 30017G31KT 10SM BKN019 OVC028 07/02 A3003 RMK AO2 PK WND 28031/0344 SLP170 T00670022
Observed
Jan-19 @ 03:53 UTC
Wind
  • 300° at 17 KTS
  • Gusting to 31 KTS
Visibility
10 SM
Flight Rules
MVFR
Cloud Levels
  • Broken at 1,900' AGL
  • Overcast at 2,800' AGL
Temperature
C / 45°F
Dewpoint
C / 36°F
Humidity
71%
Altimeter
30.03" Hg
Pressure
1016.92 hPa